createdAt,value
2019-01-03T00:02:42.737Z,98382.86
2019-01-03T00:06:00.371Z,98385.84
2019-01-03T00:09:07.947Z,98384.11
2019-01-03T00:12:17.414Z,98383.12
2019-01-03T00:15:26.510Z,98383.63
2019-01-03T00:18:46.955Z,98393.24
2019-01-03T00:21:58.815Z,98394.85
2019-01-03T00:25:24.195Z,98392.14
2019-01-03T00:28:36.907Z,98391.63
2019-01-03T00:31:54.172Z,98393.63
2019-01-03T00:35:10.583Z,98393.37
2019-01-03T00:38:21.295Z,98398.09
2019-01-03T00:41:40.452Z,98394.02
2019-01-03T00:45:06.244Z,98408.19
2019-01-03T00:48:20.166Z,98408.84
2019-01-03T00:51:38.520Z,98423.51
2019-01-03T00:54:48.320Z,98417.53
2019-01-03T00:57:59.149Z,98418.53
2019-01-03T01:01:07.301Z,98422.27
2019-01-03T01:04:17.024Z,98424.27
2019-01-03T01:07:33.570Z,98425.00
2019-01-03T01:10:44.285Z,98431.50
2019-01-03T01:14:05.389Z,98433.23
2019-01-03T01:17:13.302Z,98443.95
2019-01-03T01:20:31.342Z,98442.19
2019-01-03T01:23:48.363Z,98454.40
2019-01-03T01:27:11.741Z,98457.99
2019-01-03T01:30:33.261Z,98461.37
2019-01-03T01:34:01.464Z,98466.59
2019-01-03T01:37:10.064Z,98467.59
2019-01-03T01:40:35.530Z,98470.82
2019-01-03T01:43:49.658Z,98470.09
2019-01-03T01:47:04.298Z,98482.28
2019-01-03T01:50:13.559Z,98482.28
2019-01-03T01:53:25.385Z,98483.28
2019-01-03T01:56:33.980Z,98481.52
2019-01-03T01:59:51.636Z,98482.28
2019-01-03T02:03:02.307Z,98488.26
2019-01-03T02:06:10.029Z,98487.98
2019-01-03T02:09:35.706Z,98495.85
2019-01-03T02:12:49.692Z,98495.22
2019-01-03T02:16:03.203Z,98498.43
2019-01-03T02:19:12.890Z,98488.24
2019-01-03T02:22:34.787Z,98488.24
2019-01-03T02:25:43.101Z,98485.52
2019-01-03T02:28:59.288Z,98481.55
2019-01-03T02:32:19.561Z,98490.25
2019-01-03T02:35:37.156Z,98488.50
2019-01-03T02:38:45.279Z,98494.33
2019-01-03T02:41:55.310Z,98494.33
2019-01-03T02:45:12.651Z,98493.20
2019-01-03T02:48:24.929Z,98497.21
2019-01-03T02:51:37.638Z,98499.94
2019-01-03T02:54:48.455Z,98498.19
2019-01-03T02:57:59.001Z,98496.19
2019-01-03T03:01:21.590Z,98488.73
2019-01-03T03:04:45.109Z,98495.22
2019-01-03T03:07:53.959Z,98490.97
2019-01-03T03:11:01.049Z,98491.00
2019-01-03T03:14:10.903Z,98492.24
2019-01-03T03:17:20.134Z,98492.97
2019-01-03T03:20:30.213Z,98492.48
2019-01-03T03:23:53.749Z,98498.93
2019-01-03T03:27:11.476Z,98500.42
2019-01-03T03:30:20.382Z,98502.06
2019-01-03T03:33:27.701Z,98494.95
2019-01-03T03:36:55.501Z,98498.93
2019-01-03T03:40:04.399Z,98503.66
2019-01-03T03:43:17.735Z,98500.93
2019-01-03T03:46:26.663Z,98494.95
2019-01-03T03:49:39.972Z,98499.44
2019-01-03T03:52:53.197Z,98495.83
2019-01-03T03:56:12.190Z,98491.98
2019-01-03T03:59:27.585Z,98493.72
2019-01-03T04:02:56.267Z,98492.96
2019-01-03T04:06:05.505Z,98490.75
2019-01-03T04:09:32.749Z,98487.51
2019-01-03T04:12:40.814Z,98486.88
2019-01-03T04:15:56.219Z,98480.55
2019-01-03T04:19:04.293Z,98467.84
2019-01-03T04:22:13.949Z,98465.50
2019-01-03T04:25:21.056Z,98468.59
2019-01-03T04:28:44.333Z,98461.38
2019-01-03T04:32:00.568Z,98463.99
2019-01-03T04:35:26.131Z,98464.59
2019-01-03T04:38:35.801Z,98472.81
2019-01-03T04:41:44.882Z,98472.69
2019-01-03T04:44:53.630Z,98470.33
2019-01-03T04:48:10.317Z,98480.51
2019-01-03T04:51:29.581Z,98477.78
2019-01-03T04:54:42.996Z,98477.78
2019-01-03T04:58:07.018Z,98488.48
2019-01-03T05:01:15.526Z,98497.67
2019-01-03T05:04:42.304Z,98503.40
2019-01-03T05:07:58.036Z,98498.19
2019-01-03T05:11:18.429Z,98506.89
2019-01-03T05:14:26.215Z,98516.43
2019-01-03T05:17:39.972Z,98516.80
2019-01-03T05:20:58.166Z,98520.03
2019-01-03T05:24:11.787Z,98514.31
2019-01-03T05:27:23.224Z,98524.25
2019-01-03T05:30:38.625Z,98520.52
2019-01-03T05:33:47.675Z,98528.73
2019-01-03T05:37:00.084Z,98527.02
2019-01-03T05:40:15.380Z,98532.70
2019-01-03T05:43:23.778Z,98533.47
2019-01-03T05:46:46.330Z,98532.23
2019-01-03T05:50:03.290Z,98539.69
2019-01-03T05:53:16.693Z,98531.23
2019-01-03T05:56:31.975Z,98546.14
2019-01-03T05:59:40.894Z,98545.41
2019-01-03T06:02:59.101Z,98541.17
2019-01-03T06:06:23.519Z,98535.11
2019-01-03T06:09:35.375Z,98537.20
2019-01-03T06:12:46.558Z,98533.35
2019-01-03T06:15:55.371Z,98536.47
2019-01-03T06:19:12.001Z,98542.41
2019-01-03T06:22:32.439Z,98544.54
2019-01-03T06:25:40.518Z,98543.93
2019-01-03T06:28:49.038Z,98538.96
2019-01-03T06:31:57.887Z,98542.69
2019-01-03T06:35:13.897Z,98541.45
2019-01-03T06:38:28.145Z,98547.38
2019-01-03T06:41:35.940Z,98556.36
2019-01-03T06:44:44.623Z,98555.84
2019-01-03T06:47:59.997Z,98562.30
2019-01-03T06:51:10.791Z,98569.27
2019-01-03T06:54:27.959Z,98575.25
2019-01-03T06:57:43.338Z,98576.25
2019-01-03T07:00:58.760Z,98584.43
2019-01-03T07:04:08.559Z,98579.45
2019-01-03T07:07:17.032Z,98588.92
2019-01-03T07:10:37.560Z,98590.29
2019-01-03T07:13:47.218Z,98586.68
2019-01-03T07:16:55.257Z,98589.65
2019-01-03T07:20:06.059Z,98588.56
2019-01-03T07:23:14.440Z,98587.16
2019-01-03T07:26:22.792Z,98585.56
2019-01-03T07:29:46.223Z,98582.83
2019-01-03T07:32:53.571Z,98599.59
2019-01-03T07:36:02.845Z,98598.39
2019-01-03T07:39:13.318Z,98604.33
2019-01-03T07:42:22.969Z,98598.16
2019-01-03T07:45:46.186Z,98611.44
2019-01-03T07:48:53.850Z,98616.28
2019-01-03T07:52:02.771Z,98614.32
2019-01-03T07:55:15.844Z,98615.81
2019-01-03T07:58:25.801Z,98618.30
2019-01-03T08:01:46.476Z,98616.81
2019-01-03T08:04:54.462Z,98614.58
2019-01-03T08:08:21.901Z,98618.82
2019-01-03T08:11:37.653Z,98623.28
2019-01-03T08:14:52.630Z,98614.58
2019-01-03T08:18:03.305Z,98619.31
2019-01-03T08:21:10.946Z,98624.80
2019-01-03T08:24:27.990Z,98623.32
2019-01-03T08:27:46.137Z,98628.30
2019-01-03T08:31:05.864Z,98628.55
2019-01-03T08:34:15.420Z,98635.04
2019-01-03T08:37:36.822Z,98636.28
2019-01-03T08:40:45.910Z,98641.75
2019-01-03T08:43:52.622Z,98633.52
2019-01-03T08:47:13.864Z,98640.74
2019-01-03T08:50:32.684Z,98635.77
2019-01-03T08:53:40.043Z,98626.33
2019-01-03T08:57:06.094Z,98634.05
2019-01-03T09:00:24.190Z,98635.28
2019-01-03T09:03:49.921Z,98637.53
2019-01-03T09:06:58.714Z,98640.27
2019-01-03T09:10:07.072Z,98647.24
2019-01-03T09:13:17.028Z,98652.22
2019-01-03T09:16:42.240Z,98652.73
2019-01-03T09:20:05.712Z,98656.83
2019-01-03T09:23:20.154Z,98667.42
2019-01-03T09:26:28.030Z,98662.45
2019-01-03T09:29:38.678Z,98659.47
2019-01-03T09:32:46.048Z,98655.72
2019-01-03T09:35:55.065Z,98656.47
2019-01-03T09:39:05.620Z,98657.48
2019-01-03T09:42:13.706Z,98653.75
2019-01-03T09:45:13.592Z,98650.98
2019-01-03T09:48:12.037Z,98644.89
2019-01-03T09:51:08.449Z,98642.04
2019-01-03T09:54:04.209Z,98633.81
2019-01-03T09:57:01.163Z,98629.84
2019-01-03T09:59:58.899Z,98625.34
2019-01-03T10:02:54.608Z,98619.11
2019-01-03T10:05:51.420Z,98627.58
2019-01-03T10:08:46.961Z,98627.09
2019-01-03T10:11:43.530Z,98627.58
2019-01-03T10:14:39.767Z,98624.13
2019-01-03T10:17:36.320Z,98628.34
2019-01-03T10:20:34.387Z,98622.59
2019-01-03T10:23:30.185Z,98617.89
2019-01-03T10:26:28.985Z,98619.13
2019-01-03T10:29:24.634Z,98614.37
2019-01-03T10:32:21.626Z,98608.67
2019-01-03T10:35:18.409Z,98608.53
2019-01-03T10:38:12.921Z,98604.92
2019-01-03T10:41:09.963Z,98595.95
2019-01-03T10:44:13.124Z,98589.97
2019-01-03T10:47:10.234Z,98597.66
2019-01-03T10:50:04.748Z,98590.20
2019-01-03T10:53:01.368Z,98587.45
2019-01-03T10:55:57.997Z,98584.69
2019-01-03T10:58:53.652Z,98576.94
2019-01-03T11:01:52.368Z,98572.39
2019-01-03T11:04:47.878Z,98571.83
2019-01-03T11:07:45.187Z,98557.60
2019-01-03T11:10:42.438Z,98558.88
2019-01-03T11:13:38.745Z,98554.17
2019-01-03T11:16:35.595Z,98551.45
2019-01-03T11:19:31.286Z,98545.17
2019-01-03T11:22:28.182Z,98548.14
2019-01-03T11:25:23.935Z,98535.17
2019-01-03T11:28:20.182Z,98538.91
2019-01-03T11:31:16.818Z,98526.66
2019-01-03T11:34:12.427Z,98528.09
2019-01-03T11:37:08.146Z,98519.36
2019-01-03T11:40:04.586Z,98505.09
2019-01-03T11:43:01.429Z,98501.64
2019-01-03T11:45:57.279Z,98486.77
2019-01-03T11:48:56.082Z,98486.03
2019-01-03T11:51:52.581Z,98483.80
2019-01-03T11:54:49.253Z,98487.33
2019-01-03T11:57:45.116Z,98470.86
2019-01-03T12:00:42.700Z,98466.38
2019-01-03T12:03:39.364Z,98470.80
2019-01-03T12:06:36.580Z,98461.45
2019-01-03T12:09:34.222Z,98467.31
2019-01-03T12:12:31.186Z,98472.20
2019-01-03T12:15:29.122Z,98463.98
2019-01-03T12:18:25.830Z,98461.75
2019-01-03T12:21:22.377Z,98468.98
2019-01-03T12:24:18.956Z,98466.99
2019-01-03T12:27:13.848Z,98465.74
2019-01-03T12:30:09.794Z,98465.45
2019-01-03T12:33:07.403Z,98459.42
2019-01-03T12:36:03.053Z,98454.76
2019-01-03T12:38:59.295Z,98459.33
2019-01-03T12:41:54.965Z,98451.33
2019-01-03T12:44:51.820Z,98450.28
2019-01-03T12:47:47.402Z,98448.73
2019-01-03T12:50:43.095Z,98447.32
2019-01-03T12:53:39.702Z,98454.48
2019-01-03T12:56:36.304Z,98452.09
2019-01-03T12:59:32.941Z,98444.88
2019-01-03T13:02:29.556Z,98441.13
2019-01-03T13:05:26.329Z,98431.16
2019-01-03T13:08:23.179Z,98435.42
2019-01-03T13:11:18.942Z,98439.52
2019-01-03T13:14:14.104Z,98438.59
2019-01-03T13:17:10.236Z,98439.31
2019-01-03T13:20:06.850Z,98439.84
2019-01-03T13:23:04.597Z,98436.14
2019-01-03T13:26:01.103Z,98433.80
2019-01-03T13:28:56.469Z,98431.77
2019-01-03T13:31:53.300Z,98432.59
2019-01-03T13:34:49.245Z,98439.86
2019-01-03T13:37:45.541Z,98434.10
2019-01-03T13:40:40.382Z,98437.08
2019-01-03T13:43:37.221Z,98436.81
2019-01-03T13:46:32.781Z,98441.80
2019-01-03T13:49:29.454Z,98438.42
2019-01-03T13:52:26.403Z,98439.14
2019-01-03T13:55:21.723Z,98446.69
2019-01-03T13:58:17.548Z,98448.92
2019-01-03T14:01:12.747Z,98439.69
2019-01-03T14:04:09.479Z,98432.45
2019-01-03T14:07:06.168Z,98443.16
2019-01-03T14:10:03.998Z,98439.47
2019-01-03T14:13:00.613Z,98445.97
2019-01-03T14:15:55.575Z,98442.22
2019-01-03T14:18:52.519Z,98437.50
2019-01-03T14:21:48.339Z,98425.80
2019-01-03T14:24:46.251Z,98417.44
2019-01-03T14:27:40.991Z,98416.08
2019-01-03T14:30:37.928Z,98421.55
2019-01-03T14:33:34.886Z,98415.57
2019-01-03T14:36:30.611Z,98407.87
2019-01-03T14:39:27.340Z,98402.01
2019-01-03T14:42:24.437Z,98410.37
2019-01-03T14:45:21.278Z,98409.89
2019-01-03T14:48:16.892Z,98403.61
2019-01-03T14:51:14.081Z,98394.77
2019-01-03T14:54:11.798Z,98394.16
2019-01-03T14:57:08.818Z,98396.17
2019-01-03T15:00:04.516Z,98390.20
2019-01-03T15:03:01.198Z,98394.84
2019-01-03T15:05:57.865Z,98392.75
2019-01-03T15:08:53.552Z,98392.33
2019-01-03T15:11:51.144Z,98400.32
2019-01-03T15:14:47.746Z,98403.84
2019-01-03T15:17:44.593Z,98405.72
2019-01-03T15:20:40.206Z,98403.89
2019-01-03T15:23:36.827Z,98420.23
2019-01-03T15:26:33.775Z,98415.11
2019-01-03T15:29:29.425Z,98412.77
2019-01-03T15:32:26.255Z,98417.16
2019-01-03T15:35:22.573Z,98421.63
2019-01-03T15:38:22.186Z,98412.95
2019-01-03T15:41:24.969Z,98415.22
2019-01-03T15:44:21.391Z,98412.98
2019-01-03T15:47:18.228Z,98417.75
2019-01-03T15:50:13.652Z,98420.75
2019-01-03T15:53:10.040Z,98418.73
2019-01-03T15:56:07.739Z,98423.97
2019-01-03T15:59:03.259Z,98409.80
2019-01-03T16:02:00.957Z,98405.58
2019-01-03T16:04:56.844Z,98412.54
2019-01-03T16:07:54.567Z,98403.59
2019-01-03T16:10:51.286Z,98408.58
2019-01-03T16:13:47.795Z,98411.81
2019-01-03T16:16:43.763Z,98405.87
2019-01-03T16:19:40.402Z,98404.11
2019-01-03T16:22:37.974Z,98407.48
2019-01-03T16:25:34.527Z,98407.84
2019-01-03T16:28:31.159Z,98404.11
2019-01-03T16:31:27.131Z,98409.09
2019-01-03T16:34:24.109Z,98404.98
2019-01-03T16:37:20.752Z,98397.41
2019-01-03T16:40:17.124Z,98393.16
2019-01-03T16:43:11.971Z,98402.61
2019-01-03T16:46:08.573Z,98395.61
2019-01-03T16:49:05.403Z,98388.43
2019-01-03T16:52:00.978Z,98387.55
2019-01-03T16:54:57.552Z,98389.42
2019-01-03T16:57:54.388Z,98382.20
2019-01-03T17:00:51.244Z,98392.79
2019-01-03T17:03:47.293Z,98393.16
2019-01-03T17:06:44.266Z,98393.16
2019-01-03T17:09:41.946Z,98384.70
2019-01-03T17:12:37.777Z,98385.46
2019-01-03T17:15:35.566Z,98381.22
2019-01-03T17:18:31.404Z,98377.87
2019-01-03T17:21:28.463Z,98377.37
2019-01-03T17:24:23.738Z,98383.99
2019-01-03T17:27:20.891Z,98378.50
2019-01-03T17:30:18.380Z,98390.22
2019-01-03T17:33:17.801Z,98407.66
2019-01-03T17:36:15.814Z,98404.91
2019-01-03T17:39:12.341Z,98400.69
2019-01-03T17:42:10.256Z,98402.41
2019-01-03T17:45:05.918Z,98401.17
2019-01-03T17:48:02.627Z,98404.69
2019-01-03T17:50:58.307Z,98412.16
2019-01-03T17:53:54.738Z,98421.35
2019-01-03T17:56:50.695Z,98415.41
2019-01-03T17:59:47.585Z,98412.92
2019-01-03T18:02:45.304Z,98404.94
2019-01-03T18:05:42.076Z,98412.92
2019-01-03T18:08:38.015Z,98411.27
2019-01-03T18:11:35.141Z,98429.84
2019-01-03T18:14:32.192Z,98428.11
2019-01-03T18:17:28.973Z,98431.59
2019-01-03T18:20:27.544Z,98418.75
2019-01-03T18:23:23.427Z,98402.95
2019-01-03T18:26:20.601Z,98405.45
2019-01-03T18:29:16.442Z,98417.13
2019-01-03T18:32:12.963Z,98427.09
2019-01-03T18:35:08.711Z,98430.83
2019-01-03T18:38:06.384Z,98432.55
2019-01-03T18:41:03.159Z,98433.44
2019-01-03T18:43:59.966Z,98444.75
2019-01-03T18:46:56.644Z,98439.77
2019-01-03T18:49:53.383Z,98439.04
2019-01-03T18:52:49.932Z,98445.49
2019-01-03T18:55:45.101Z,98448.46
2019-01-03T18:58:43.971Z,98455.20
2019-01-03T19:01:41.049Z,98449.86
2019-01-03T19:04:38.822Z,98452.94
2019-01-03T19:07:35.312Z,98447.95
2019-01-03T19:10:32.364Z,98438.98
2019-01-03T19:13:28.006Z,98439.98
2019-01-03T19:16:24.902Z,98441.48
2019-01-03T19:19:19.509Z,98452.31
2019-01-03T19:22:15.278Z,98456.79
2019-01-03T19:25:12.185Z,98466.02
2019-01-03T19:28:14.333Z,98454.44
2019-01-03T19:31:12.310Z,98455.91
2019-01-03T19:34:08.881Z,98457.64
2019-01-03T19:37:07.467Z,98461.37
2019-01-03T19:40:03.120Z,98461.13
2019-01-03T19:43:00.017Z,98454.89
2019-01-03T19:45:55.685Z,98462.11
2019-01-03T19:48:54.459Z,98464.60
2019-01-03T19:51:51.350Z,98461.86
2019-01-03T19:54:47.295Z,98460.61
2019-01-03T19:57:43.631Z,98453.14
2019-01-03T20:00:39.340Z,98449.88
2019-01-03T20:03:41.469Z,98448.16
2019-01-03T20:06:37.412Z,98440.68
2019-01-03T20:09:34.237Z,98444.67
2019-01-03T20:12:29.963Z,98441.81
2019-01-03T20:15:26.605Z,98441.81
2019-01-03T20:18:23.452Z,98446.28
2019-01-03T20:21:19.969Z,98444.19
2019-01-03T20:24:23.687Z,98445.69
2019-01-03T20:27:22.168Z,98447.67
2019-01-03T20:30:20.366Z,98443.45
2019-01-03T20:33:16.659Z,98440.20
2019-01-03T20:36:13.846Z,98437.70
2019-01-03T20:39:12.610Z,98437.70
2019-01-03T20:42:08.070Z,98431.87
2019-01-03T20:45:05.106Z,98431.73
2019-01-03T20:48:01.158Z,98437.70
2019-01-03T20:50:57.935Z,98434.73
2019-01-03T20:53:53.783Z,98428.52
2019-01-03T20:56:50.326Z,98423.53
2019-01-03T20:59:48.243Z,98423.53
2019-01-03T21:02:44.182Z,98431.87
2019-01-03T21:05:41.859Z,98431.87
2019-01-03T21:08:37.695Z,98427.74
2019-01-03T21:11:34.569Z,98424.27
2019-01-03T21:14:30.823Z,98429.24
2019-01-03T21:17:27.644Z,98437.23
2019-01-03T21:20:23.404Z,98437.23
2019-01-03T21:23:21.517Z,98442.69
2019-01-03T21:26:18.478Z,98442.69
2019-01-03T21:29:14.432Z,98445.06
2019-01-03T21:32:11.050Z,98450.93
2019-01-03T21:35:06.796Z,98459.91
2019-01-03T21:38:04.728Z,98449.94
2019-01-03T21:41:01.431Z,98464.89
2019-01-03T21:43:59.043Z,98458.18
2019-01-03T21:46:56.111Z,98463.64
2019-01-03T21:49:52.717Z,98463.41
2019-01-03T21:52:49.494Z,98460.67
2019-01-03T21:55:45.389Z,98467.27
2019-01-03T21:58:41.171Z,98460.52
2019-01-03T22:01:38.068Z,98460.92
2019-01-03T22:04:36.250Z,98453.93
2019-01-03T22:07:34.167Z,98460.16
2019-01-03T22:10:30.697Z,98459.68
2019-01-03T22:13:29.660Z,98467.15
2019-01-03T22:16:25.608Z,98479.61
2019-01-03T22:19:23.525Z,98488.80
2019-01-03T22:22:20.086Z,98488.80
2019-01-03T22:25:15.709Z,98494.02
2019-01-03T22:28:11.590Z,98494.16
2019-01-03T22:31:07.408Z,98482.55
2019-01-03T22:34:04.283Z,98476.72
2019-01-03T22:37:00.913Z,98471.59
2019-01-03T22:39:57.299Z,98472.25
2019-01-03T22:42:53.903Z,98478.36
2019-01-03T22:45:49.456Z,98482.09
2019-01-03T22:48:46.132Z,98487.08
2019-01-03T22:51:40.693Z,98477.00
2019-01-03T22:54:37.457Z,98476.34
2019-01-03T22:57:33.276Z,98477.11
2019-01-03T23:00:51.650Z,98466.16
2019-01-03T23:03:47.208Z,98470.88
2019-01-03T23:06:44.044Z,98469.16
2019-01-03T23:09:41.505Z,98474.14
2019-01-03T23:12:39.307Z,98468.92
2019-01-03T23:15:36.155Z,98477.39
2019-01-03T23:18:31.754Z,98480.36
2019-01-03T23:21:30.562Z,98474.02
2019-01-03T23:24:26.115Z,98483.87
2019-01-03T23:27:22.851Z,98484.48
2019-01-03T23:30:19.439Z,98485.73
2019-01-03T23:33:16.020Z,98482.66
2019-01-03T23:36:12.241Z,98493.71
2019-01-03T23:39:07.975Z,98493.34
2019-01-03T23:42:05.596Z,98483.16
2019-01-03T23:45:26.146Z,98489.97
2019-01-03T23:48:22.479Z,98484.63
2019-01-03T23:51:19.452Z,98485.39
2019-01-03T23:54:15.462Z,98495.83
2019-01-03T23:57:11.461Z,98495.36
